sensor_id;sensor_type;location;lat;lon;timestamp;pressure;altitude;pressure_sealevel;temperature;humidity
52291;BME280;39663;45.432;28.050;2023-06-24T00:09:11;101123.34;;;25.82;37.02
52291;BME280;39663;45.432;28.050;2023-06-24T00:09:43;101118.36;;;25.83;37.15
52291;BME280;39663;45.432;28.050;2023-06-24T00:10:15;101119.40;;;26.06;36.72
52291;BME280;39663;45.432;28.050;2023-06-24T00:10:46;101117.23;;;25.86;36.94
52291;BME280;39663;45.432;28.050;2023-06-24T00:11:18;101115.60;;;26.09;36.60
52291;BME280;39663;45.432;28.050;2023-06-24T00:11:50;101115.52;;;25.90;36.49
52291;BME280;39663;45.432;28.050;2023-06-24T00:12:21;101114.25;;;25.88;36.86
52291;BME280;39663;45.432;28.050;2023-06-24T00:12:52;101110.88;;;25.62;37.08
52291;BME280;39663;45.432;28.050;2023-06-24T00:13:24;101112.77;;;25.53;36.97
52291;BME280;39663;45.432;28.050;2023-06-24T00:13:55;101110.28;;;25.69;37.26
52291;BME280;39663;45.432;28.050;2023-06-24T00:14:27;101107.99;;;25.90;36.90
52291;BME280;39663;45.432;28.050;2023-06-24T00:14:59;101108.91;;;25.93;36.76
52291;BME280;39663;45.432;28.050;2023-06-24T00:15:30;101108.43;;;25.94;36.96
52291;BME280;39663;45.432;28.050;2023-06-24T00:16:02;101109.03;;;25.91;36.60
52291;BME280;39663;45.432;28.050;2023-06-24T00:16:33;101105.38;;;25.97;36.67
52291;BME280;39663;45.432;28.050;2023-06-24T00:17:05;101101.00;;;25.94;36.90
52291;BME280;39663;45.432;28.050;2023-06-24T00:17:37;101102.72;;;26.01;36.33
52291;BME280;39663;45.432;28.050;2023-06-24T00:18:08;101100.61;;;25.92;36.66
52291;BME280;39663;45.432;28.050;2023-06-24T00:18:40;101099.88;;;25.84;36.23
52291;BME280;39663;45.432;28.050;2023-06-24T00:19:11;101099.34;;;25.99;36.66
52291;BME280;39663;45.432;28.050;2023-06-24T00:19:43;101099.78;;;25.81;36.33
52291;BME280;39663;45.432;28.050;2023-06-24T00:20:14;101096.14;;;25.74;37.05
52291;BME280;39663;45.432;28.050;2023-06-24T00:20:46;101095.99;;;25.96;36.63
52291;BME280;39663;45.432;28.050;2023-06-24T00:21:17;101097.03;;;25.84;36.21
52291;BME280;39663;45.432;28.050;2023-06-24T00:21:50;101095.23;;;25.94;36.55
52291;BME280;39663;45.432;28.050;2023-06-24T00:22:21;101093.38;;;25.91;36.85
52291;BME280;39663;45.432;28.050;2023-06-24T00:22:53;101094.78;;;25.97;36.54
52291;BME280;39663;45.432;28.050;2023-06-24T00:23:25;101093.92;;;25.97;36.46
52291;BME280;39663;45.432;28.050;2023-06-24T00:23:57;101093.48;;;25.95;36.56
52291;BME280;39663;45.432;28.050;2023-06-24T00:24:29;101094.59;;;25.91;36.51
52291;BME280;39663;45.432;28.050;2023-06-24T00:25:00;101092.00;;;25.81;36.14
52291;BME280;39663;45.432;28.050;2023-06-24T00:25:32;101088.94;;;26.01;36.57
52291;BME280;39663;45.432;28.050;2023-06-24T00:26:03;101088.61;;;25.72;36.29
52291;BME280;39663;45.432;28.050;2023-06-24T00:26:35;101086.36;;;25.97;36.12
52291;BME280;39663;45.432;28.050;2023-06-24T00:27:06;101083.97;;;25.92;36.42
52291;BME280;39663;45.432;28.050;2023-06-24T00:27:38;101084.08;;;25.93;36.51
52291;BME280;39663;45.432;28.050;2023-06-24T00:28:09;101082.55;;;25.65;37.02
52291;BME280;39663;45.432;28.050;2023-06-24T00:28:40;101082.53;;;25.90;36.50
52291;BME280;39663;45.432;28.050;2023-06-24T00:29:12;101083.62;;;25.94;36.37
52291;BME280;39663;45.432;28.050;2023-06-24T00:29:43;101082.27;;;25.74;36.40
52291;BME280;39663;45.432;28.050;2023-06-24T00:30:15;101082.98;;;25.81;36.06
52291;BME280;39663;45.432;28.050;2023-06-24T00:30:47;101086.01;;;25.92;36.23
52291;BME280;39663;45.432;28.050;2023-06-24T00:31:19;101084.23;;;25.71;36.23
52291;BME280;39663;45.432;28.050;2023-06-24T00:31:50;101084.96;;;25.66;36.27
52291;BME280;39663;45.432;28.050;2023-06-24T00:32:22;101085.73;;;25.90;36.32
52291;BME280;39663;45.432;28.050;2023-06-24T00:32:53;101084.82;;;25.71;36.25
52291;BME280;39663;45.432;28.050;2023-06-24T00:33:25;101083.73;;;25.89;36.23
52291;BME280;39663;45.432;28.050;2023-06-24T00:33:56;101083.64;;;25.68;36.39
52291;BME280;39663;45.432;28.050;2023-06-24T00:34:28;101082.91;;;25.89;36.26
52291;BME280;39663;45.432;28.050;2023-06-24T00:34:59;101083.14;;;25.71;36.32
52291;BME280;39663;45.432;28.050;2023-06-24T00:35:31;101080.26;;;25.88;36.59
52291;BME280;39663;45.432;28.050;2023-06-24T00:36:02;101079.24;;;25.63;36.12
52291;BME280;39663;45.432;28.050;2023-06-24T00:36:34;101078.34;;;25.86;36.13
52291;BME280;39663;45.432;28.050;2023-06-24T00:37:10;101079.00;;;25.76;36.69
52291;BME280;39663;45.432;28.050;2023-06-24T00:37:42;101078.89;;;25.78;36.39
52291;BME280;39663;45.432;28.050;2023-06-24T00:38:13;101077.42;;;25.84;36.12
52291;BME280;39663;45.432;28.050;2023-06-24T00:38:45;101076.28;;;25.50;36.74
52291;BME280;39663;45.432;28.050;2023-06-24T00:39:16;101073.09;;;25.72;36.89
52291;BME280;39663;45.432;28.050;2023-06-24T00:39:48;101074.55;;;25.74;36.22
52291;BME280;39663;45.432;28.050;2023-06-24T00:40:19;101074.89;;;25.59;36.08
52291;BME280;39663;45.432;28.050;2023-06-24T00:40:51;101074.43;;;25.76;36.66
52291;BME280;39663;45.432;28.050;2023-06-24T00:41:23;101074.54;;;25.70;36.68
52291;BME280;39663;45.432;28.050;2023-06-24T00:41:54;101078.78;;;25.60;36.02
52291;BME280;39663;45.432;28.050;2023-06-24T00:42:26;101076.47;;;25.83;36.32
52291;BME280;39663;45.432;28.050;2023-06-24T00:42:58;101076.94;;;26.00;36.08
52291;BME280;39663;45.432;28.050;2023-06-24T00:43:29;101074.10;;;25.63;36.09
52291;BME280;39663;45.432;28.050;2023-06-24T00:44:02;101076.85;;;25.73;36.42
52291;BME280;39663;45.432;28.050;2023-06-24T00:44:33;101076.57;;;25.72;36.86
52291;BME280;39663;45.432;28.050;2023-06-24T00:45:06;101075.46;;;25.65;36.77
52291;BME280;39663;45.432;28.050;2023-06-24T00:45:38;101077.83;;;25.79;36.39
52291;BME280;39663;45.432;28.050;2023-06-24T00:46:10;101075.61;;;25.58;36.95
52291;BME280;39663;45.432;28.050;2023-06-24T00:46:42;101076.23;;;25.79;36.21
52291;BME280;39663;45.432;28.050;2023-06-24T00:47:13;101076.70;;;25.76;36.24
52291;BME280;39663;45.432;28.050;2023-06-24T00:47:45;101077.44;;;25.83;36.18
52291;BME280;39663;45.432;28.050;2023-06-24T00:48:17;101076.74;;;25.81;35.90
52291;BME280;39663;45.432;28.050;2023-06-24T00:48:48;101078.76;;;25.78;35.71
52291;BME280;39663;45.432;28.050;2023-06-24T00:49:20;101076.75;;;25.68;35.98
52291;BME280;39663;45.432;28.050;2023-06-24T00:49:51;101076.68;;;25.66;36.19
52291;BME280;39663;45.432;28.050;2023-06-24T00:50:22;101076.06;;;25.45;36.44
52291;BME280;39663;45.432;28.050;2023-06-24T00:50:54;101078.08;;;25.67;36.01
52291;BME280;39663;45.432;28.050;2023-06-24T00:51:25;101076.97;;;25.59;36.58
52291;BME280;39663;45.432;28.050;2023-06-24T00:51:57;101078.01;;;25.60;35.97
52291;BME280;39663;45.432;28.050;2023-06-24T00:52:29;101075.10;;;25.13;36.16
52291;BME280;39663;45.432;28.050;2023-06-24T00:53:01;101076.02;;;25.61;36.12
52291;BME280;39663;45.432;28.050;2023-06-24T00:53:32;101075.06;;;25.45;36.11
52291;BME280;39663;45.432;28.050;2023-06-24T00:54:04;101075.68;;;25.59;35.82
52291;BME280;39663;45.432;28.050;2023-06-24T00:54:35;101075.04;;;25.53;36.33
52291;BME280;39663;45.432;28.050;2023-06-24T00:55:07;101074.16;;;25.55;35.91
52291;BME280;39663;45.432;28.050;2023-06-24T00:55:39;101072.97;;;25.49;36.24
52291;BME280;39663;45.432;28.050;2023-06-24T00:56:11;101071.21;;;25.48;36.13
52291;BME280;39663;45.432;28.050;2023-06-24T00:56:43;101071.84;;;25.45;36.10
52291;BME280;39663;45.432;28.050;2023-06-24T00:57:15;101072.04;;;25.47;36.13
52291;BME280;39663;45.432;28.050;2023-06-24T00:57:49;101071.31;;;25.48;36.30
52291;BME280;39663;45.432;28.050;2023-06-24T00:58:21;101070.96;;;25.38;35.90
52291;BME280;39663;45.432;28.050;2023-06-24T00:58:54;101071.84;;;25.50;35.98
52291;BME280;39663;45.432;28.050;2023-06-24T00:59:27;101071.58;;;25.49;35.99
52291;BME280;39663;45.432;28.050;2023-06-24T00:59:59;101073.00;;;25.48;36.40
52291;BME280;39663;45.432;28.050;2023-06-24T01:00:31;101071.20;;;25.48;36.13
52291;BME280;39663;45.432;28.050;2023-06-24T01:01:18;101073.87;;;25.47;36.58
52291;BME280;39663;45.432;28.050;2023-06-24T01:01:50;101077.57;;;25.42;36.26
52291;BME280;39663;45.432;28.050;2023-06-24T01:02:22;101079.12;;;25.45;36.41
52291;BME280;39663;45.432;28.050;2023-06-24T01:02:53;101081.00;;;25.26;35.88
52291;BME280;39663;45.432;28.050;2023-06-24T01:03:26;101083.61;;;25.49;35.83
52291;BME280;39663;45.432;28.050;2023-06-24T01:03:58;101083.94;;;25.50;35.58
52291;BME280;39663;45.432;28.050;2023-06-24T01:04:29;101084.26;;;25.52;35.68
52291;BME280;39663;45.432;28.050;2023-06-24T01:05:01;101085.94;;;25.43;36.50
52291;BME280;39663;45.432;28.050;2023-06-24T01:05:33;101085.58;;;25.51;35.92
52291;BME280;39663;45.432;28.050;2023-06-24T01:06:05;101085.25;;;25.33;35.89
52291;BME280;39663;45.432;28.050;2023-06-24T01:06:38;101086.02;;;25.53;35.89
52291;BME280;39663;45.432;28.050;2023-06-24T01:07:09;101085.36;;;25.50;35.77
52291;BME280;39663;45.432;28.050;2023-06-24T01:07:41;101083.52;;;25.66;35.73
52291;BME280;39663;45.432;28.050;2023-06-24T01:08:13;101085.69;;;25.49;35.97
52291;BME280;39663;45.432;28.050;2023-06-24T01:08:45;101086.40;;;25.49;35.77
52291;BME280;39663;45.432;28.050;2023-06-24T01:09:16;101084.83;;;25.15;36.25
52291;BME280;39663;45.432;28.050;2023-06-24T01:09:48;101087.22;;;25.57;35.87
52291;BME280;39663;45.432;28.050;2023-06-24T01:10:20;101086.74;;;25.36;36.12
52291;BME280;39663;45.432;28.050;2023-06-24T01:10:53;101088.66;;;25.38;36.00
52291;BME280;39663;45.432;28.050;2023-06-24T01:11:24;101088.18;;;25.49;35.71
52291;BME280;39663;45.432;28.050;2023-06-24T01:11:56;101090.41;;;25.44;35.46
52291;BME280;39663;45.432;28.050;2023-06-24T01:12:27;101092.26;;;25.39;35.46
52291;BME280;39663;45.432;28.050;2023-06-24T01:12:59;101094.74;;;25.44;35.35
52291;BME280;39663;45.432;28.050;2023-06-24T01:13:31;101095.20;;;25.50;35.40
52291;BME280;39663;45.432;28.050;2023-06-24T01:14:02;101096.57;;;25.42;35.48
52291;BME280;39663;45.432;28.050;2023-06-24T01:14:35;101101.52;;;25.36;35.82
52291;BME280;39663;45.432;28.050;2023-06-24T01:15:08;101105.56;;;25.55;36.33
52291;BME280;39663;45.432;28.050;2023-06-24T01:15:39;101105.44;;;25.32;36.00
52291;BME280;39663;45.432;28.050;2023-06-24T01:16:15;101108.30;;;25.26;36.62
52291;BME280;39663;45.432;28.050;2023-06-24T01:16:56;101111.56;;;25.24;36.46
52291;BME280;39663;45.432;28.050;2023-06-24T01:17:35;101110.26;;;25.27;36.31
52291;BME280;39663;45.432;28.050;2023-06-24T01:18:13;101112.81;;;25.38;35.83
52291;BME280;39663;45.432;28.050;2023-06-24T01:18:50;101110.90;;;25.46;35.77
52291;BME280;39663;45.432;28.050;2023-06-24T01:19:44;101113.77;;;25.42;35.88
52291;BME280;39663;45.432;28.050;2023-06-24T01:20:27;101115.09;;;25.48;35.70
52291;BME280;39663;45.432;28.050;2023-06-24T01:21:05;101116.54;;;25.45;36.37
52291;BME280;39663;45.432;28.050;2023-06-24T01:21:47;101113.63;;;25.55;35.31
52291;BME280;39663;45.432;28.050;2023-06-24T01:22:40;101112.95;;;25.51;35.28
52291;BME280;39663;45.432;28.050;2023-06-24T01:23:49;101115.44;;;25.42;35.85
52291;BME280;39663;45.432;28.050;2023-06-24T01:24:41;101113.48;;;25.91;35.12
52291;BME280;39663;45.432;28.050;2023-06-24T01:25:33;101114.87;;;25.52;35.50
52291;BME280;39663;45.432;28.050;2023-06-24T01:26:20;101116.60;;;25.51;35.23
52291;BME280;39663;45.432;28.050;2023-06-24T01:27:10;101119.63;;;25.42;35.55
52291;BME280;39663;45.432;28.050;2023-06-24T01:28:01;101122.80;;;25.69;35.03
52291;BME280;39663;45.432;28.050;2023-06-24T01:29:13;101122.64;;;25.27;35.87
52291;BME280;39663;45.432;28.050;2023-06-24T01:30:08;101123.75;;;25.38;36.21
52291;BME280;39663;45.432;28.050;2023-06-24T01:31:42;101122.99;;;25.46;35.92
52291;BME280;39663;45.432;28.050;2023-06-24T01:32:24;101126.49;;;25.76;34.79
52291;BME280;39663;45.432;28.050;2023-06-24T01:32:59;101125.72;;;25.52;35.02
52291;BME280;39663;45.432;28.050;2023-06-24T01:33:38;101125.79;;;25.45;34.82
52291;BME280;39663;45.432;28.050;2023-06-24T01:34:22;101126.32;;;25.49;34.94
52291;BME280;39663;45.432;28.050;2023-06-24T01:34:59;101126.39;;;25.39;35.31
52291;BME280;39663;45.432;28.050;2023-06-24T01:35:32;101126.36;;;25.43;34.82
52291;BME280;39663;45.432;28.050;2023-06-24T01:36:06;101127.90;;;25.35;35.56
52291;BME280;39663;45.432;28.050;2023-06-24T01:36:42;101130.37;;;25.41;35.39
52291;BME280;39663;45.432;28.050;2023-06-24T01:37:19;101129.28;;;25.36;35.39
52291;BME280;39663;45.432;28.050;2023-06-24T01:37:52;101128.75;;;25.59;35.03
52291;BME280;39663;45.432;28.050;2023-06-24T01:38:30;101129.66;;;25.39;35.05
52291;BME280;39663;45.432;28.050;2023-06-24T01:39:06;101129.67;;;25.37;35.00
52291;BME280;39663;45.432;28.050;2023-06-24T01:39:45;101129.50;;;25.36;35.00
52291;BME280;39663;45.432;28.050;2023-06-24T01:40:23;101128.15;;;25.39;35.10
52291;BME280;39663;45.432;28.050;2023-06-24T01:40:57;101128.87;;;25.71;35.18
52291;BME280;39663;45.432;28.050;2023-06-24T01:41:34;101127.68;;;25.27;35.98
52291;BME280;39663;45.432;28.050;2023-06-24T01:42:11;101127.89;;;25.35;35.06
52291;BME280;39663;45.432;28.050;2023-06-24T01:43:05;101127.08;;;25.31;35.80
52291;BME280;39663;45.432;28.050;2023-06-24T01:43:38;101125.21;;;25.38;35.28
52291;BME280;39663;45.432;28.050;2023-06-24T01:44:15;101124.71;;;25.42;35.07
52291;BME280;39663;45.432;28.050;2023-06-24T01:44:49;101124.22;;;25.60;35.28
52291;BME280;39663;45.432;28.050;2023-06-24T01:45:24;101121.68;;;25.35;35.25
52291;BME280;39663;45.432;28.050;2023-06-24T01:45:57;101120.07;;;25.37;35.58
52291;BME280;39663;45.432;28.050;2023-06-24T01:46:30;101120.55;;;25.41;35.08
52291;BME280;39663;45.432;28.050;2023-06-24T01:47:04;101120.36;;;25.49;34.93
52291;BME280;39663;45.432;28.050;2023-06-24T01:47:38;101119.20;;;25.43;35.00
52291;BME280;39663;45.432;28.050;2023-06-24T01:48:14;101118.74;;;25.61;34.96
52291;BME280;39663;45.432;28.050;2023-06-24T01:48:47;101117.08;;;25.42;34.90
52291;BME280;39663;45.432;28.050;2023-06-24T01:49:20;101119.11;;;25.59;35.21
52291;BME280;39663;45.432;28.050;2023-06-24T01:49:54;101118.24;;;25.34;35.54
52291;BME280;39663;45.432;28.050;2023-06-24T01:50:32;101118.72;;;25.57;35.35
52291;BME280;39663;45.432;28.050;2023-06-24T01:51:09;101116.86;;;25.12;35.50
52291;BME280;39663;45.432;28.050;2023-06-24T01:51:43;101117.36;;;25.33;35.60
52291;BME280;39663;45.432;28.050;2023-06-24T01:52:18;101116.28;;;25.36;35.33
52291;BME280;39663;45.432;28.050;2023-06-24T01:52:53;101116.90;;;25.43;34.87
52291;BME280;39663;45.432;28.050;2023-06-24T01:53:28;101116.88;;;25.62;35.40
52291;BME280;39663;45.432;28.050;2023-06-24T01:54:02;101117.25;;;25.36;35.48
52291;BME280;39663;45.432;28.050;2023-06-24T01:54:36;101118.15;;;25.30;35.45
52291;BME280;39663;45.432;28.050;2023-06-24T01:55:10;101117.70;;;25.34;35.69
52291;BME280;39663;45.432;28.050;2023-06-24T01:55:42;101118.03;;;25.58;35.64
52291;BME280;39663;45.432;28.050;2023-06-24T01:56:15;101118.56;;;25.35;35.39
52291;BME280;39663;45.432;28.050;2023-06-24T01:56:48;101119.20;;;25.41;35.18
52291;BME280;39663;45.432;28.050;2023-06-24T01:57:21;101121.72;;;25.33;35.63
52291;BME280;39663;45.432;28.050;2023-06-24T01:57:55;101123.52;;;25.39;35.14
52291;BME280;39663;45.432;28.050;2023-06-24T01:58:29;101124.55;;;25.32;35.49
52291;BME280;39663;45.432;28.050;2023-06-24T01:59:02;101126.58;;;25.35;35.06
52291;BME280;39663;45.432;28.050;2023-06-24T01:59:39;101127.75;;;25.50;35.25
52291;BME280;39663;45.432;28.050;2023-06-24T02:00:11;101130.00;;;24.98;35.41
52291;BME280;39663;45.432;28.050;2023-06-24T02:00:43;101129.13;;;25.25;35.26
52291;BME280;39663;45.432;28.050;2023-06-24T02:01:15;101131.47;;;25.56;35.21
52291;BME280;39663;45.432;28.050;2023-06-24T02:01:48;101130.49;;;25.44;35.40
52291;BME280;39663;45.432;28.050;2023-06-24T02:02:21;101130.88;;;25.25;35.92
52291;BME280;39663;45.432;28.050;2023-06-24T02:02:53;101130.30;;;25.72;35.37
52291;BME280;39663;45.432;28.050;2023-06-24T02:03:26;101129.39;;;25.41;35.28
52291;BME280;39663;45.432;28.050;2023-06-24T02:03:59;101131.21;;;25.33;35.33
52291;BME280;39663;45.432;28.050;2023-06-24T02:04:32;101128.23;;;25.24;35.51
52291;BME280;39663;45.432;28.050;2023-06-24T02:05:06;101130.43;;;25.29;35.55
52291;BME280;39663;45.432;28.050;2023-06-24T02:05:39;101127.92;;;25.25;35.56
52291;BME280;39663;45.432;28.050;2023-06-24T02:06:12;101127.97;;;25.40;35.65
52291;BME280;39663;45.432;28.050;2023-06-24T02:06:44;101125.13;;;25.03;35.53
52291;BME280;39663;45.432;28.050;2023-06-24T02:07:17;101127.21;;;25.29;35.85
52291;BME280;39663;45.432;28.050;2023-06-24T02:07:52;101124.73;;;25.30;35.86
52291;BME280;39663;45.432;28.050;2023-06-24T02:08:25;101127.35;;;25.33;35.58
52291;BME280;39663;45.432;28.050;2023-06-24T02:08:58;101128.39;;;25.45;35.27
52291;BME280;39663;45.432;28.050;2023-06-24T02:09:33;101128.70;;;25.24;35.71
52291;BME280;39663;45.432;28.050;2023-06-24T02:10:06;101131.21;;;25.31;35.40
52291;BME280;39663;45.432;28.050;2023-06-24T02:10:40;101131.33;;;25.52;35.41
52291;BME280;39663;45.432;28.050;2023-06-24T02:11:14;101133.28;;;25.24;35.74
52291;BME280;39663;45.432;28.050;2023-06-24T02:11:47;101132.94;;;25.23;35.94
52291;BME280;39663;45.432;28.050;2023-06-24T02:12:20;101134.12;;;25.45;35.41
52291;BME280;39663;45.432;28.050;2023-06-24T02:12:53;101132.96;;;25.43;35.57
52291;BME280;39663;45.432;28.050;2023-06-24T02:13:26;101134.00;;;25.30;35.50
52291;BME280;39663;45.432;28.050;2023-06-24T02:14:00;101133.85;;;25.37;35.03
52291;BME280;39663;45.432;28.050;2023-06-24T02:14:33;101131.65;;;25.32;35.85
52291;BME280;39663;45.432;28.050;2023-06-24T02:15:06;101133.43;;;25.29;35.41
52291;BME280;39663;45.432;28.050;2023-06-24T02:15:39;101135.01;;;25.30;35.28
52291;BME280;39663;45.432;28.050;2023-06-24T02:16:13;101131.60;;;25.52;35.23
52291;BME280;39663;45.432;28.050;2023-06-24T02:16:46;101134.21;;;25.33;35.91
52291;BME280;39663;45.432;28.050;2023-06-24T02:17:19;101133.46;;;25.59;35.34
52291;BME280;39663;45.432;28.050;2023-06-24T02:17:52;101132.57;;;25.36;35.07
52291;BME280;39663;45.432;28.050;2023-06-24T02:18:24;101131.00;;;25.67;35.67
52291;BME280;39663;45.432;28.050;2023-06-24T02:18:57;101130.81;;;25.68;34.91
52291;BME280;39663;45.432;28.050;2023-06-24T02:19:30;101130.57;;;25.45;35.44
52291;BME280;39663;45.432;28.050;2023-06-24T02:20:03;101129.54;;;25.45;35.78
52291;BME280;39663;45.432;28.050;2023-06-24T02:20:36;101128.38;;;25.53;35.13
52291;BME280;39663;45.432;28.050;2023-06-24T02:21:08;101129.09;;;25.54;35.32
52291;BME280;39663;45.432;28.050;2023-06-24T02:21:41;101129.08;;;25.57;34.78
52291;BME280;39663;45.432;28.050;2023-06-24T02:22:13;101129.74;;;25.65;35.34
52291;BME280;39663;45.432;28.050;2023-06-24T02:22:46;101126.88;;;25.68;34.41
52291;BME280;39663;45.432;28.050;2023-06-24T02:23:17;101127.06;;;25.49;34.29
52291;BME280;39663;45.432;28.050;2023-06-24T02:23:51;101127.75;;;25.67;34.43
52291;BME280;39663;45.432;28.050;2023-06-24T02:24:23;101128.83;;;25.86;34.35
52291;BME280;39663;45.432;28.050;2023-06-24T02:24:55;101129.54;;;25.70;34.81
52291;BME280;39663;45.432;28.050;2023-06-24T02:25:28;101132.25;;;25.85;34.92
52291;BME280;39663;45.432;28.050;2023-06-24T02:26:00;101133.35;;;25.64;35.17
52291;BME280;39663;45.432;28.050;2023-06-24T02:26:32;101133.20;;;25.38;35.01
52291;BME280;39663;45.432;28.050;2023-06-24T02:27:06;101133.54;;;25.62;34.61
52291;BME280;39663;45.432;28.050;2023-06-24T02:27:38;101133.92;;;25.64;34.44
52291;BME280;39663;45.432;28.050;2023-06-24T02:28:10;101133.30;;;25.43;34.41
52291;BME280;39663;45.432;28.050;2023-06-24T02:28:43;101134.55;;;25.65;34.95
52291;BME280;39663;45.432;28.050;2023-06-24T02:29:15;101134.11;;;25.60;34.55
52291;BME280;39663;45.432;28.050;2023-06-24T02:29:48;101136.98;;;25.61;34.39
52291;BME280;39663;45.432;28.050;2023-06-24T02:30:21;101136.66;;;25.66;35.26
52291;BME280;39663;45.432;28.050;2023-06-24T02:30:53;101139.66;;;25.65;35.21
52291;BME280;39663;45.432;28.050;2023-06-24T02:31:25;101136.73;;;25.50;34.50
52291;BME280;39663;45.432;28.050;2023-06-24T02:31:57;101137.39;;;25.53;35.20
52291;BME280;39663;45.432;28.050;2023-06-24T02:32:29;101137.61;;;25.70;34.89
52291;BME280;39663;45.432;28.050;2023-06-24T02:33:00;101137.67;;;25.69;35.02
52291;BME280;39663;45.432;28.050;2023-06-24T02:33:32;101137.90;;;25.69;34.96
52291;BME280;39663;45.432;28.050;2023-06-24T02:34:04;101138.94;;;25.71;34.78
52291;BME280;39663;45.432;28.050;2023-06-24T02:34:35;101137.89;;;25.57;34.62
52291;BME280;39663;45.432;28.050;2023-06-24T02:35:08;101139.02;;;25.95;34.73
52291;BME280;39663;45.432;28.050;2023-06-24T02:35:39;101141.71;;;25.74;34.87
52291;BME280;39663;45.432;28.050;2023-06-24T02:36:11;101140.18;;;25.74;34.50
52291;BME280;39663;45.432;28.050;2023-06-24T02:36:43;101145.44;;;25.69;34.72
52291;BME280;39663;45.432;28.050;2023-06-24T02:37:14;101146.20;;;25.72;35.07
52291;BME280;39663;45.432;28.050;2023-06-24T02:37:46;101147.24;;;25.73;35.12
52291;BME280;39663;45.432;28.050;2023-06-24T02:38:18;101148.16;;;25.61;34.52
52291;BME280;39663;45.432;28.050;2023-06-24T02:38:49;101151.06;;;25.81;34.59
52291;BME280;39663;45.432;28.050;2023-06-24T02:39:21;101149.32;;;25.72;35.32
52291;BME280;39663;45.432;28.050;2023-06-24T02:39:52;101150.97;;;25.78;34.71
52291;BME280;39663;45.432;28.050;2023-06-24T02:40:24;101151.25;;;25.56;34.90
52291;BME280;39663;45.432;28.050;2023-06-24T02:40:56;101151.09;;;25.68;35.11
52291;BME280;39663;45.432;28.050;2023-06-24T02:41:28;101152.56;;;25.71;35.04
52291;BME280;39663;45.432;28.050;2023-06-24T02:41:59;101152.60;;;25.50;35.20
52291;BME280;39663;45.432;28.050;2023-06-24T02:42:31;101154.08;;;25.55;34.94
52291;BME280;39663;45.432;28.050;2023-06-24T02:43:02;101152.95;;;25.66;35.19
52291;BME280;39663;45.432;28.050;2023-06-24T02:43:34;101154.38;;;25.70;35.25
52291;BME280;39663;45.432;28.050;2023-06-24T02:44:05;101156.02;;;25.74;35.33
52291;BME280;39663;45.432;28.050;2023-06-24T02:44:37;101155.50;;;25.75;35.09
52291;BME280;39663;45.432;28.050;2023-06-24T02:45:10;101156.53;;;25.66;35.39
52291;BME280;39663;45.432;28.050;2023-06-24T02:45:42;101159.77;;;25.77;34.86
52291;BME280;39663;45.432;28.050;2023-06-24T02:46:15;101160.21;;;25.77;34.97
52291;BME280;39663;45.432;28.050;2023-06-24T02:46:47;101157.97;;;25.73;35.15
52291;BME280;39663;45.432;28.050;2023-06-24T02:47:21;101159.01;;;25.80;34.94
52291;BME280;39663;45.432;28.050;2023-06-24T02:47:53;101161.11;;;25.75;34.97
52291;BME280;39663;45.432;28.050;2023-06-24T02:48:27;101160.53;;;25.77;35.14
52291;BME280;39663;45.432;28.050;2023-06-24T02:48:59;101161.19;;;25.78;35.18
52291;BME280;39663;45.432;28.050;2023-06-24T02:49:31;101159.71;;;25.55;35.36
52291;BME280;39663;45.432;28.050;2023-06-24T02:50:04;101159.81;;;25.75;35.08
52291;BME280;39663;45.432;28.050;2023-06-24T02:50:38;101159.88;;;25.56;35.23
52291;BME280;39663;45.432;28.050;2023-06-24T02:51:10;101160.73;;;25.80;35.08
52291;BME280;39663;45.432;28.050;2023-06-24T02:51:43;101160.70;;;25.80;34.97
52291;BME280;39663;45.432;28.050;2023-06-24T02:52:15;101164.08;;;25.81;34.70
52291;BME280;39663;45.432;28.050;2023-06-24T02:52:47;101161.81;;;25.75;35.21
52291;BME280;39663;45.432;28.050;2023-06-24T02:53:19;101162.69;;;25.72;35.30
52291;BME280;39663;45.432;28.050;2023-06-24T02:53:51;101164.20;;;25.96;35.09
52291;BME280;39663;45.432;28.050;2023-06-24T02:54:23;101163.18;;;25.73;35.45
52291;BME280;39663;45.432;28.050;2023-06-24T02:54:55;101164.92;;;25.75;34.99
52291;BME280;39663;45.432;28.050;2023-06-24T02:55:28;101166.78;;;25.66;35.35
52291;BME280;39663;45.432;28.050;2023-06-24T02:56:01;101167.48;;;25.90;35.43
52291;BME280;39663;45.432;28.050;2023-06-24T02:56:33;101169.63;;;25.59;35.39
52291;BME280;39663;45.432;28.050;2023-06-24T02:57:05;101171.02;;;25.77;35.29
52291;BME280;39663;45.432;28.050;2023-06-24T02:57:37;101169.90;;;25.94;35.07
52291;BME280;39663;45.432;28.050;2023-06-24T02:58:10;101171.98;;;25.80;35.17
52291;BME280;39663;45.432;28.050;2023-06-24T02:58:42;101173.09;;;25.83;35.05
52291;BME280;39663;45.432;28.050;2023-06-24T02:59:14;101174.58;;;25.82;35.28
52291;BME280;39663;45.432;28.050;2023-06-24T02:59:46;101175.12;;;25.83;35.17
52291;BME280;39663;45.432;28.050;2023-06-24T03:00:18;101178.30;;;25.82;35.27
52291;BME280;39663;45.432;28.050;2023-06-24T03:00:50;101179.60;;;25.82;35.29
52291;BME280;39663;45.432;28.050;2023-06-24T03:01:22;101179.45;;;25.39;35.07
52291;BME280;39663;45.432;28.050;2023-06-24T03:01:54;101179.20;;;25.60;34.58
52291;BME280;39663;45.432;28.050;2023-06-24T03:02:26;101182.34;;;25.80;35.06
52291;BME280;39663;45.432;28.050;2023-06-24T03:02:58;101183.38;;;25.78;35.44
52291;BME280;39663;45.432;28.050;2023-06-24T03:03:30;101183.38;;;25.71;35.36